sensor_id;sensor_type;location;lat;lon;timestamp;P1;durP1;ratioP1;P2;durP2;ratioP2
13230;SDS011;6681;53.254;10.398;2022-11-13T00:01:59;22.30;;;15.13;;
13230;SDS011;6681;53.254;10.398;2022-11-13T00:04:25;21.77;;;16.03;;
13230;SDS011;6681;53.254;10.398;2022-11-13T00:06:51;17.47;;;13.30;;
13230;SDS011;6681;53.254;10.398;2022-11-13T00:09:16;16.57;;;12.27;;
13230;SDS011;6681;53.254;10.398;2022-11-13T00:11:42;17.77;;;13.50;;
13230;SDS011;6681;53.254;10.398;2022-11-13T00:14:07;14.97;;;12.50;;
13230;SDS011;6681;53.254;10.398;2022-11-13T00:16:33;19.80;;;13.60;;
13230;SDS011;6681;53.254;10.398;2022-11-13T00:18:59;16.40;;;14.33;;
13230;SDS011;6681;53.254;10.398;2022-11-13T00:21:24;15.60;;;12.30;;
13230;SDS011;6681;53.254;10.398;2022-11-13T00:23:54;17.17;;;12.80;;
13230;SDS011;6681;53.254;10.398;2022-11-13T00:26:24;14.97;;;12.37;;
13230;SDS011;6681;53.254;10.398;2022-11-13T00:28:52;15.53;;;13.03;;
13230;SDS011;6681;53.254;10.398;2022-11-13T00:31:19;15.97;;;12.23;;
13230;SDS011;6681;53.254;10.398;2022-11-13T00:33:45;18.20;;;12.60;;
13230;SDS011;6681;53.254;10.398;2022-11-13T00:36:13;16.63;;;12.83;;
13230;SDS011;6681;53.254;10.398;2022-11-13T00:38:41;16.17;;;13.60;;
13230;SDS011;6681;53.254;10.398;2022-11-13T00:41:06;18.07;;;12.67;;
13230;SDS011;6681;53.254;10.398;2022-11-13T00:43:32;16.03;;;12.80;;
13230;SDS011;6681;53.254;10.398;2022-11-13T00:46:01;19.20;;;12.60;;
13230;SDS011;6681;53.254;10.398;2022-11-13T00:48:26;16.93;;;12.90;;
13230;SDS011;6681;53.254;10.398;2022-11-13T00:50:52;17.27;;;12.40;;
13230;SDS011;6681;53.254;10.398;2022-11-13T00:53:18;20.80;;;13.37;;
13230;SDS011;6681;53.254;10.398;2022-11-13T00:55:44;21.80;;;14.07;;
13230;SDS011;6681;53.254;10.398;2022-11-13T00:58:10;21.90;;;13.93;;
13230;SDS011;6681;53.254;10.398;2022-11-13T01:00:37;12.73;;;11.40;;
13230;SDS011;6681;53.254;10.398;2022-11-13T01:03:03;16.27;;;12.63;;
13230;SDS011;6681;53.254;10.398;2022-11-13T01:05:29;14.70;;;11.07;;
13230;SDS011;6681;53.254;10.398;2022-11-13T01:07:55;17.50;;;12.03;;
13230;SDS011;6681;53.254;10.398;2022-11-13T01:10:21;19.47;;;12.63;;
13230;SDS011;6681;53.254;10.398;2022-11-13T01:12:48;17.87;;;12.17;;
13230;SDS011;6681;53.254;10.398;2022-11-13T01:15:14;24.83;;;13.53;;
13230;SDS011;6681;53.254;10.398;2022-11-13T01:17:40;17.17;;;13.33;;
13230;SDS011;6681;53.254;10.398;2022-11-13T01:20:10;15.77;;;12.80;;
13230;SDS011;6681;53.254;10.398;2022-11-13T01:22:35;17.53;;;12.53;;
13230;SDS011;6681;53.254;10.398;2022-11-13T01:25:01;16.87;;;13.00;;
13230;SDS011;6681;53.254;10.398;2022-11-13T01:27:27;18.93;;;12.77;;
13230;SDS011;6681;53.254;10.398;2022-11-13T01:29:53;16.83;;;12.63;;
13230;SDS011;6681;53.254;10.398;2022-11-13T01:32:19;15.83;;;12.10;;
13230;SDS011;6681;53.254;10.398;2022-11-13T01:34:45;15.13;;;13.07;;
13230;SDS011;6681;53.254;10.398;2022-11-13T01:37:10;17.40;;;13.77;;
13230;SDS011;6681;53.254;10.398;2022-11-13T01:39:36;19.13;;;13.50;;
13230;SDS011;6681;53.254;10.398;2022-11-13T01:42:02;17.63;;;13.17;;
13230;SDS011;6681;53.254;10.398;2022-11-13T01:44:44;18.63;;;11.93;;
13230;SDS011;6681;53.254;10.398;2022-11-13T01:47:13;15.77;;;12.87;;
13230;SDS011;6681;53.254;10.398;2022-11-13T01:49:39;16.70;;;13.63;;
13230;SDS011;6681;53.254;10.398;2022-11-13T01:52:09;18.60;;;12.53;;
13230;SDS011;6681;53.254;10.398;2022-11-13T01:55:04;17.33;;;12.60;;
13230;SDS011;6681;53.254;10.398;2022-11-13T01:57:35;14.03;;;11.80;;
13230;SDS011;6681;53.254;10.398;2022-11-13T02:00:04;11.47;;;10.17;;
13230;SDS011;6681;53.254;10.398;2022-11-13T02:02:32;14.67;;;10.70;;
13230;SDS011;6681;53.254;10.398;2022-11-13T02:04:59;15.83;;;12.50;;
13230;SDS011;6681;53.254;10.398;2022-11-13T02:07:25;13.80;;;12.13;;
13230;SDS011;6681;53.254;10.398;2022-11-13T02:09:52;15.17;;;10.80;;
13230;SDS011;6681;53.254;10.398;2022-11-13T02:12:24;20.73;;;11.87;;
13230;SDS011;6681;53.254;10.398;2022-11-13T02:14:56;13.90;;;11.47;;
13230;SDS011;6681;53.254;10.398;2022-11-13T02:17:27;13.80;;;11.77;;
13230;SDS011;6681;53.254;10.398;2022-11-13T02:20:01;18.97;;;13.27;;
13230;SDS011;6681;53.254;10.398;2022-11-13T02:24:57;17.20;;;12.43;;
13230;SDS011;6681;53.254;10.398;2022-11-13T02:27:29;15.30;;;10.77;;
13230;SDS011;6681;53.254;10.398;2022-11-13T02:30:14;22.03;;;12.03;;
13230;SDS011;6681;53.254;10.398;2022-11-13T02:32:43;15.30;;;12.77;;
13230;SDS011;6681;53.254;10.398;2022-11-13T02:35:15;14.90;;;11.67;;
13230;SDS011;6681;53.254;10.398;2022-11-13T02:37:44;19.90;;;11.00;;
13230;SDS011;6681;53.254;10.398;2022-11-13T02:40:10;16.43;;;12.67;;
13230;SDS011;6681;53.254;10.398;2022-11-13T02:42:36;13.67;;;11.07;;
13230;SDS011;6681;53.254;10.398;2022-11-13T02:45:02;16.30;;;12.30;;
13230;SDS011;6681;53.254;10.398;2022-11-13T02:47:29;15.80;;;11.80;;
13230;SDS011;6681;53.254;10.398;2022-11-13T02:49:55;15.53;;;12.00;;
13230;SDS011;6681;53.254;10.398;2022-11-13T02:52:21;17.03;;;13.60;;
13230;SDS011;6681;53.254;10.398;2022-11-13T02:54:46;17.17;;;13.03;;
13230;SDS011;6681;53.254;10.398;2022-11-13T02:57:12;12.30;;;11.00;;
13230;SDS011;6681;53.254;10.398;2022-11-13T02:59:37;18.17;;;13.10;;
13230;SDS011;6681;53.254;10.398;2022-11-13T03:02:03;14.40;;;11.50;;
13230;SDS011;6681;53.254;10.398;2022-11-13T03:04:29;16.53;;;12.93;;
13230;SDS011;6681;53.254;10.398;2022-11-13T03:06:54;17.30;;;13.80;;
13230;SDS011;6681;53.254;10.398;2022-11-13T03:09:20;16.63;;;12.73;;
13230;SDS011;6681;53.254;10.398;2022-11-13T03:11:46;17.03;;;12.73;;
13230;SDS011;6681;53.254;10.398;2022-11-13T03:14:11;15.17;;;11.53;;
13230;SDS011;6681;53.254;10.398;2022-11-13T03:16:37;14.73;;;12.63;;
13230;SDS011;6681;53.254;10.398;2022-11-13T03:19:03;16.77;;;11.97;;
13230;SDS011;6681;53.254;10.398;2022-11-13T03:21:29;17.00;;;12.23;;
13230;SDS011;6681;53.254;10.398;2022-11-13T03:23:55;15.87;;;12.87;;
13230;SDS011;6681;53.254;10.398;2022-11-13T03:26:21;17.77;;;12.70;;
13230;SDS011;6681;53.254;10.398;2022-11-13T03:28:46;14.60;;;12.63;;
13230;SDS011;6681;53.254;10.398;2022-11-13T03:31:12;16.00;;;11.83;;
13230;SDS011;6681;53.254;10.398;2022-11-13T03:33:38;18.73;;;13.87;;
13230;SDS011;6681;53.254;10.398;2022-11-13T03:36:04;15.87;;;13.07;;
13230;SDS011;6681;53.254;10.398;2022-11-13T03:38:30;14.40;;;11.67;;
13230;SDS011;6681;53.254;10.398;2022-11-13T03:40:55;15.47;;;11.33;;
13230;SDS011;6681;53.254;10.398;2022-11-13T03:43:21;14.37;;;11.70;;
13230;SDS011;6681;53.254;10.398;2022-11-13T03:45:48;14.33;;;10.63;;
13230;SDS011;6681;53.254;10.398;2022-11-13T03:48:14;15.93;;;12.13;;
13230;SDS011;6681;53.254;10.398;2022-11-13T03:50:44;12.67;;;11.23;;
13230;SDS011;6681;53.254;10.398;2022-11-13T03:53:11;16.00;;;11.93;;
13230;SDS011;6681;53.254;10.398;2022-11-13T03:55:37;13.77;;;11.77;;
13230;SDS011;6681;53.254;10.398;2022-11-13T03:58:03;14.77;;;11.47;;
13230;SDS011;6681;53.254;10.398;2022-11-13T04:00:29;13.43;;;11.00;;
13230;SDS011;6681;53.254;10.398;2022-11-13T04:02:56;13.00;;;10.60;;
13230;SDS011;6681;53.254;10.398;2022-11-13T04:05:21;13.13;;;10.57;;
13230;SDS011;6681;53.254;10.398;2022-11-13T04:07:47;15.03;;;11.37;;
13230;SDS011;6681;53.254;10.398;2022-11-13T04:10:13;12.00;;;10.17;;
13230;SDS011;6681;53.254;10.398;2022-11-13T04:12:39;11.07;;;9.77;;
13230;SDS011;6681;53.254;10.398;2022-11-13T04:15:05;12.00;;;10.33;;
13230;SDS011;6681;53.254;10.398;2022-11-13T04:17:31;13.73;;;10.83;;
13230;SDS011;6681;53.254;10.398;2022-11-13T04:19:57;12.53;;;10.70;;
13230;SDS011;6681;53.254;10.398;2022-11-13T04:22:22;11.17;;;9.73;;
13230;SDS011;6681;53.254;10.398;2022-11-13T04:24:48;11.97;;;10.73;;
13230;SDS011;6681;53.254;10.398;2022-11-13T04:27:14;11.67;;;10.47;;
13230;SDS011;6681;53.254;10.398;2022-11-13T04:29:39;11.17;;;10.03;;
13230;SDS011;6681;53.254;10.398;2022-11-13T04:32:05;10.67;;;9.63;;
13230;SDS011;6681;53.254;10.398;2022-11-13T04:34:31;14.53;;;11.70;;
13230;SDS011;6681;53.254;10.398;2022-11-13T04:36:56;13.50;;;11.53;;
13230;SDS011;6681;53.254;10.398;2022-11-13T04:39:22;14.13;;;10.00;;
13230;SDS011;6681;53.254;10.398;2022-11-13T04:41:51;14.43;;;12.37;;
13230;SDS011;6681;53.254;10.398;2022-11-13T04:44:35;15.07;;;12.20;;
13230;SDS011;6681;53.254;10.398;2022-11-13T04:47:00;14.70;;;10.70;;
13230;SDS011;6681;53.254;10.398;2022-11-13T04:49:26;12.53;;;11.17;;
13230;SDS011;6681;53.254;10.398;2022-11-13T04:51:52;12.90;;;10.80;;
13230;SDS011;6681;53.254;10.398;2022-11-13T04:54:17;17.20;;;11.90;;
13230;SDS011;6681;53.254;10.398;2022-11-13T04:56:43;16.23;;;13.63;;
13230;SDS011;6681;53.254;10.398;2022-11-13T04:59:08;11.13;;;9.53;;
13230;SDS011;6681;53.254;10.398;2022-11-13T05:01:34;12.60;;;9.93;;
13230;SDS011;6681;53.254;10.398;2022-11-13T05:04:00;13.00;;;11.07;;
13230;SDS011;6681;53.254;10.398;2022-11-13T05:06:27;13.17;;;10.70;;
13230;SDS011;6681;53.254;10.398;2022-11-13T05:08:53;15.47;;;11.20;;
13230;SDS011;6681;53.254;10.398;2022-11-13T05:11:18;14.20;;;10.70;;
13230;SDS011;6681;53.254;10.398;2022-11-13T05:13:44;12.40;;;10.17;;
13230;SDS011;6681;53.254;10.398;2022-11-13T05:16:10;12.20;;;10.90;;
13230;SDS011;6681;53.254;10.398;2022-11-13T05:18:38;12.13;;;10.73;;
13230;SDS011;6681;53.254;10.398;2022-11-13T05:21:05;11.53;;;9.80;;
13230;SDS011;6681;53.254;10.398;2022-11-13T05:23:31;12.97;;;10.33;;
13230;SDS011;6681;53.254;10.398;2022-11-13T05:26:04;15.87;;;12.40;;
13230;SDS011;6681;53.254;10.398;2022-11-13T05:28:32;15.37;;;11.33;;
13230;SDS011;6681;53.254;10.398;2022-11-13T05:31:02;11.23;;;9.57;;
13230;SDS011;6681;53.254;10.398;2022-11-13T05:33:33;16.37;;;12.47;;
13230;SDS011;6681;53.254;10.398;2022-11-13T05:36:00;16.43;;;11.70;;
13230;SDS011;6681;53.254;10.398;2022-11-13T05:38:27;13.27;;;11.17;;
13230;SDS011;6681;53.254;10.398;2022-11-13T05:40:53;13.47;;;10.87;;
13230;SDS011;6681;53.254;10.398;2022-11-13T05:43:18;11.73;;;10.10;;
13230;SDS011;6681;53.254;10.398;2022-11-13T05:45:44;17.33;;;11.87;;
13230;SDS011;6681;53.254;10.398;2022-11-13T05:48:10;16.70;;;11.37;;
13230;SDS011;6681;53.254;10.398;2022-11-13T05:50:35;16.73;;;12.13;;
13230;SDS011;6681;53.254;10.398;2022-11-13T05:53:01;17.50;;;13.37;;
13230;SDS011;6681;53.254;10.398;2022-11-13T05:55:26;12.93;;;10.90;;
13230;SDS011;6681;53.254;10.398;2022-11-13T05:57:52;16.37;;;12.43;;
13230;SDS011;6681;53.254;10.398;2022-11-13T06:00:18;16.50;;;13.67;;
13230;SDS011;6681;53.254;10.398;2022-11-13T06:02:43;13.93;;;11.37;;
13230;SDS011;6681;53.254;10.398;2022-11-13T06:05:09;20.70;;;14.43;;
13230;SDS011;6681;53.254;10.398;2022-11-13T06:07:35;17.67;;;14.17;;
13230;SDS011;6681;53.254;10.398;2022-11-13T06:10:00;14.87;;;12.33;;
13230;SDS011;6681;53.254;10.398;2022-11-13T06:12:26;19.93;;;13.90;;
13230;SDS011;6681;53.254;10.398;2022-11-13T06:14:53;19.23;;;13.33;;
13230;SDS011;6681;53.254;10.398;2022-11-13T06:17:19;19.30;;;14.00;;
13230;SDS011;6681;53.254;10.398;2022-11-13T06:19:44;17.87;;;12.70;;
13230;SDS011;6681;53.254;10.398;2022-11-13T06:22:12;16.23;;;13.43;;
13230;SDS011;6681;53.254;10.398;2022-11-13T06:24:37;15.93;;;13.00;;
13230;SDS011;6681;53.254;10.398;2022-11-13T06:27:03;19.87;;;14.43;;
13230;SDS011;6681;53.254;10.398;2022-11-13T06:29:29;19.03;;;13.40;;
13230;SDS011;6681;53.254;10.398;2022-11-13T06:31:54;17.63;;;13.37;;
13230;SDS011;6681;53.254;10.398;2022-11-13T06:34:20;18.97;;;13.70;;
13230;SDS011;6681;53.254;10.398;2022-11-13T06:36:45;17.43;;;13.40;;
13230;SDS011;6681;53.254;10.398;2022-11-13T06:39:11;17.60;;;13.70;;
13230;SDS011;6681;53.254;10.398;2022-11-13T06:41:37;19.57;;;14.40;;
13230;SDS011;6681;53.254;10.398;2022-11-13T06:44:03;20.10;;;13.83;;
13230;SDS011;6681;53.254;10.398;2022-11-13T06:46:29;20.17;;;14.07;;
13230;SDS011;6681;53.254;10.398;2022-11-13T06:48:55;21.20;;;15.47;;
13230;SDS011;6681;53.254;10.398;2022-11-13T06:51:25;20.43;;;15.63;;
13230;SDS011;6681;53.254;10.398;2022-11-13T06:53:53;21.87;;;14.07;;
13230;SDS011;6681;53.254;10.398;2022-11-13T06:56:19;32.63;;;16.13;;
13230;SDS011;6681;53.254;10.398;2022-11-13T06:58:44;30.83;;;15.90;;
13230;SDS011;6681;53.254;10.398;2022-11-13T07:01:29;18.90;;;12.80;;
13230;SDS011;6681;53.254;10.398;2022-11-13T07:03:57;18.40;;;13.37;;
13230;SDS011;6681;53.254;10.398;2022-11-13T07:06:23;26.63;;;15.57;;
13230;SDS011;6681;53.254;10.398;2022-11-13T07:08:49;16.13;;;12.93;;
13230;SDS011;6681;53.254;10.398;2022-11-13T07:11:17;22.10;;;14.57;;
13230;SDS011;6681;53.254;10.398;2022-11-13T07:13:44;27.33;;;17.87;;
13230;SDS011;6681;53.254;10.398;2022-11-13T07:16:10;24.60;;;17.93;;
13230;SDS011;6681;53.254;10.398;2022-11-13T07:18:37;25.97;;;16.30;;
13230;SDS011;6681;53.254;10.398;2022-11-13T07:21:04;21.33;;;15.13;;
13230;SDS011;6681;53.254;10.398;2022-11-13T07:23:32;22.03;;;14.63;;
13230;SDS011;6681;53.254;10.398;2022-11-13T07:25:58;19.13;;;14.70;;
13230;SDS011;6681;53.254;10.398;2022-11-13T07:28:24;22.37;;;15.20;;
13230;SDS011;6681;53.254;10.398;2022-11-13T07:30:50;20.63;;;13.97;;
13230;SDS011;6681;53.254;10.398;2022-11-13T07:33:15;21.27;;;16.60;;
13230;SDS011;6681;53.254;10.398;2022-11-13T07:35:41;20.80;;;17.20;;
13230;SDS011;6681;53.254;10.398;2022-11-13T07:38:06;23.10;;;16.83;;
13230;SDS011;6681;53.254;10.398;2022-11-13T07:40:36;24.07;;;16.10;;
13230;SDS011;6681;53.254;10.398;2022-11-13T07:43:04;24.13;;;15.77;;
13230;SDS011;6681;53.254;10.398;2022-11-13T07:45:30;29.83;;;16.60;;
13230;SDS011;6681;53.254;10.398;2022-11-13T07:48:01;28.03;;;18.20;;
13230;SDS011;6681;53.254;10.398;2022-11-13T07:50:30;34.27;;;21.90;;
13230;SDS011;6681;53.254;10.398;2022-11-13T07:52:58;34.30;;;20.67;;
13230;SDS011;6681;53.254;10.398;2022-11-13T07:55:25;36.30;;;21.37;;
13230;SDS011;6681;53.254;10.398;2022-11-13T07:57:54;33.57;;;20.47;;
13230;SDS011;6681;53.254;10.398;2022-11-13T08:00:20;34.73;;;21.70;;
13230;SDS011;6681;53.254;10.398;2022-11-13T08:02:47;38.97;;;21.30;;
13230;SDS011;6681;53.254;10.398;2022-11-13T08:05:13;38.63;;;20.33;;
13230;SDS011;6681;53.254;10.398;2022-11-13T08:07:39;35.87;;;21.57;;
13230;SDS011;6681;53.254;10.398;2022-11-13T08:10:05;36.27;;;21.87;;
13230;SDS011;6681;53.254;10.398;2022-11-13T08:12:31;39.47;;;21.47;;
13230;SDS011;6681;53.254;10.398;2022-11-13T08:14:57;41.67;;;23.60;;
13230;SDS011;6681;53.254;10.398;2022-11-13T08:17:23;36.33;;;22.60;;
13230;SDS011;6681;53.254;10.398;2022-11-13T08:19:48;40.97;;;21.67;;
13230;SDS011;6681;53.254;10.398;2022-11-13T08:22:14;36.80;;;20.43;;
13230;SDS011;6681;53.254;10.398;2022-11-13T08:24:40;47.70;;;22.83;;
13230;SDS011;6681;53.254;10.398;2022-11-13T08:27:05;39.30;;;22.57;;
13230;SDS011;6681;53.254;10.398;2022-11-13T08:29:31;39.93;;;22.70;;
13230;SDS011;6681;53.254;10.398;2022-11-13T08:31:57;39.53;;;22.10;;
13230;SDS011;6681;53.254;10.398;2022-11-13T08:34:23;33.97;;;20.70;;
13230;SDS011;6681;53.254;10.398;2022-11-13T08:36:48;36.60;;;21.97;;
13230;SDS011;6681;53.254;10.398;2022-11-13T08:39:16;40.50;;;22.63;;
13230;SDS011;6681;53.254;10.398;2022-11-13T08:41:42;40.87;;;23.10;;
13230;SDS011;6681;53.254;10.398;2022-11-13T08:44:08;37.80;;;20.60;;
13230;SDS011;6681;53.254;10.398;2022-11-13T08:46:34;36.03;;;21.67;;
13230;SDS011;6681;53.254;10.398;2022-11-13T08:49:00;34.73;;;20.40;;
13230;SDS011;6681;53.254;10.398;2022-11-13T08:51:25;31.97;;;20.10;;
13230;SDS011;6681;53.254;10.398;2022-11-13T08:53:51;41.13;;;20.47;;
13230;SDS011;6681;53.254;10.398;2022-11-13T08:56:16;39.70;;;21.97;;
13230;SDS011;6681;53.254;10.398;2022-11-13T08:58:43;35.87;;;20.70;;
13230;SDS011;6681;53.254;10.398;2022-11-13T09:01:09;37.70;;;22.33;;
13230;SDS011;6681;53.254;10.398;2022-11-13T09:03:35;41.43;;;23.33;;
13230;SDS011;6681;53.254;10.398;2022-11-13T09:06:04;33.00;;;20.83;;
13230;SDS011;6681;53.254;10.398;2022-11-13T09:08:31;32.77;;;19.10;;
13230;SDS011;6681;53.254;10.398;2022-11-13T09:11:00;36.33;;;21.37;;
13230;SDS011;6681;53.254;10.398;2022-11-13T09:13:27;43.10;;;23.20;;
13230;SDS011;6681;53.254;10.398;2022-11-13T09:15:53;34.13;;;21.00;;
13230;SDS011;6681;53.254;10.398;2022-11-13T09:18:18;38.43;;;21.77;;
13230;SDS011;6681;53.254;10.398;2022-11-13T09:20:44;37.73;;;20.13;;
13230;SDS011;6681;53.254;10.398;2022-11-13T09:23:09;40.43;;;22.73;;
13230;SDS011;6681;53.254;10.398;2022-11-13T09:25:35;40.70;;;21.80;;
13230;SDS011;6681;53.254;10.398;2022-11-13T09:28:01;33.60;;;21.10;;
13230;SDS011;6681;53.254;10.398;2022-11-13T09:30:28;35.00;;;19.30;;
13230;SDS011;6681;53.254;10.398;2022-11-13T09:32:55;30.87;;;18.40;;
13230;SDS011;6681;53.254;10.398;2022-11-13T09:35:23;29.43;;;19.63;;
13230;SDS011;6681;53.254;10.398;2022-11-13T09:38:05;31.47;;;18.40;;
13230;SDS011;6681;53.254;10.398;2022-11-13T09:40:34;24.17;;;17.73;;
13230;SDS011;6681;53.254;10.398;2022-11-13T09:43:05;34.80;;;19.87;;
13230;SDS011;6681;53.254;10.398;2022-11-13T09:45:38;31.87;;;18.93;;
13230;SDS011;6681;53.254;10.398;2022-11-13T09:50:47;32.60;;;19.70;;
13230;SDS011;6681;53.254;10.398;2022-11-13T09:53:13;28.83;;;19.60;;
13230;SDS011;6681;53.254;10.398;2022-11-13T09:55:40;32.50;;;21.60;;
13230;SDS011;6681;53.254;10.398;2022-11-13T09:58:42;30.80;;;19.30;;
13230;SDS011;6681;53.254;10.398;2022-11-13T10:01:30;33.03;;;20.13;;
13230;SDS011;6681;53.254;10.398;2022-11-13T10:04:13;28.30;;;21.33;;
13230;SDS011;6681;53.254;10.398;2022-11-13T10:06:45;31.67;;;21.50;;
13230;SDS011;6681;53.254;10.398;2022-11-13T10:12:05;24.43;;;17.67;;
13230;SDS011;6681;53.254;10.398;2022-11-13T10:14:44;24.50;;;18.03;;
13230;SDS011;6681;53.254;10.398;2022-11-13T10:19:58;27.10;;;16.13;;
13230;SDS011;6681;53.254;10.398;2022-11-13T10:22:36;28.67;;;17.77;;
13230;SDS011;6681;53.254;10.398;2022-11-13T10:27:38;29.93;;;20.43;;
13230;SDS011;6681;53.254;10.398;2022-11-13T10:30:10;27.97;;;18.67;;
13230;SDS011;6681;53.254;10.398;2022-11-13T10:32:40;24.17;;;17.73;;
13230;SDS011;6681;53.254;10.398;2022-11-13T10:40:38;30.60;;;20.23;;
13230;SDS011;6681;53.254;10.398;2022-11-13T10:45:37;30.87;;;20.43;;
13230;SDS011;6681;53.254;10.398;2022-11-13T10:48:04;28.33;;;20.63;;
13230;SDS011;6681;53.254;10.398;2022-11-13T10:50:30;36.87;;;22.80;;
13230;SDS011;6681;53.254;10.398;2022-11-13T10:52:57;32.13;;;20.33;;
13230;SDS011;6681;53.254;10.398;2022-11-13T10:58:38;27.87;;;19.03;;
13230;SDS011;6681;53.254;10.398;2022-11-13T11:00:59;29.40;;;18.77;;
13230;SDS011;6681;53.254;10.398;2022-11-13T11:03:25;33.63;;;19.70;;
13230;SDS011;6681;53.254;10.398;2022-11-13T11:05:51;27.67;;;18.23;;
13230;SDS011;6681;53.254;10.398;2022-11-13T11:08:17;25.87;;;16.80;;
13230;SDS011;6681;53.254;10.398;2022-11-13T11:10:56;26.17;;;18.10;;
13230;SDS011;6681;53.254;10.398;2022-11-13T11:13:42;32.73;;;19.70;;
13230;SDS011;6681;53.254;10.398;2022-11-13T11:16:10;27.37;;;19.13;;
13230;SDS011;6681;53.254;10.398;2022-11-13T11:18:43;28.43;;;18.53;;
13230;SDS011;6681;53.254;10.398;2022-11-13T11:21:24;27.73;;;19.57;;
13230;SDS011;6681;53.254;10.398;2022-11-13T11:24:03;27.77;;;18.40;;
13230;SDS011;6681;53.254;10.398;2022-11-13T11:26:36;29.90;;;20.40;;
13230;SDS011;6681;53.254;10.398;2022-11-13T11:32:21;28.30;;;20.37;;
13230;SDS011;6681;53.254;10.398;2022-11-13T11:35:20;25.53;;;18.30;;
13230;SDS011;6681;53.254;10.398;2022-11-13T11:38:07;34.23;;;20.70;;
13230;SDS011;6681;53.254;10.398;2022-11-13T11:40:40;33.00;;;19.90;;
13230;SDS011;6681;53.254;10.398;2022-11-13T11:46:11;32.53;;;21.67;;
13230;SDS011;6681;53.254;10.398;2022-11-13T11:48:38;30.77;;;20.80;;
13230;SDS011;6681;53.254;10.398;2022-11-13T11:56:43;36.93;;;22.97;;
13230;SDS011;6681;53.254;10.398;2022-11-13T12:04:23;24.13;;;17.40;;
13230;SDS011;6681;53.254;10.398;2022-11-13T12:07:05;28.83;;;19.30;;
13230;SDS011;6681;53.254;10.398;2022-11-13T12:10:23;29.97;;;18.70;;
13230;SDS011;6681;53.254;10.398;2022-11-13T12:18:25;23.20;;;16.10;;
13230;SDS011;6681;53.254;10.398;2022-11-13T12:26:41;25.57;;;14.50;;
13230;SDS011;6681;53.254;10.398;2022-11-13T12:35:19;22.47;;;15.77;;
13230;SDS011;6681;53.254;10.398;2022-11-13T12:40:36;20.90;;;15.20;;
13230;SDS011;6681;53.254;10.398;2022-11-13T12:45:51;23.30;;;16.30;;
13230;SDS011;6681;53.254;10.398;2022-11-13T12:50:56;25.73;;;17.20;;
13230;SDS011;6681;53.254;10.398;2022-11-13T12:53:28;22.13;;;14.50;;
13230;SDS011;6681;53.254;10.398;2022-11-13T12:56:00;19.37;;;15.30;;
13230;SDS011;6681;53.254;10.398;2022-11-13T12:58:28;24.67;;;16.57;;
13230;SDS011;6681;53.254;10.398;2022-11-13T13:01:06;25.07;;;16.63;;
13230;SDS011;6681;53.254;10.398;2022-11-13T13:14:44;30.87;;;20.93;;
13230;SDS011;6681;53.254;10.398;2022-11-13T13:19:39;25.93;;;19.10;;
13230;SDS011;6681;53.254;10.398;2022-11-13T13:22:09;26.13;;;17.80;;
13230;SDS011;6681;53.254;10.398;2022-11-13T13:24:36;31.90;;;20.40;;
13230;SDS011;6681;53.254;10.398;2022-11-13T13:27:22;35.73;;;22.23;;
13230;SDS011;6681;53.254;10.398;2022-11-13T13:29:49;33.57;;;21.77;;
13230;SDS011;6681;53.254;10.398;2022-11-13T13:32:23;28.87;;;20.53;;
13230;SDS011;6681;53.254;10.398;2022-11-13T13:37:28;38.17;;;22.23;;
13230;SDS011;6681;53.254;10.398;2022-11-13T13:40:20;39.03;;;23.43;;
13230;SDS011;6681;53.254;10.398;2022-11-13T13:48:16;37.23;;;22.20;;
13230;SDS011;6681;53.254;10.398;2022-11-13T13:50:45;34.00;;;22.57;;
13230;SDS011;6681;53.254;10.398;2022-11-13T13:53:14;32.93;;;22.23;;
13230;SDS011;6681;53.254;10.398;2022-11-13T13:56:01;35.67;;;22.90;;
13230;SDS011;6681;53.254;10.398;2022-11-13T13:58:29;36.77;;;23.70;;
13230;SDS011;6681;53.254;10.398;2022-11-13T14:00:59;30.83;;;22.30;;
13230;SDS011;6681;53.254;10.398;2022-11-13T14:03:27;32.17;;;23.37;;
13230;SDS011;6681;53.254;10.398;2022-11-13T14:05:53;33.33;;;23.37;;
13230;SDS011;6681;53.254;10.398;2022-11-13T14:08:23;34.10;;;21.93;;
13230;SDS011;6681;53.254;10.398;2022-11-13T14:10:50;30.80;;;21.97;;
13230;SDS011;6681;53.254;10.398;2022-11-13T14:13:26;32.63;;;21.47;;
13230;SDS011;6681;53.254;10.398;2022-11-13T14:15:59;29.60;;;20.00;;
13230;SDS011;6681;53.254;10.398;2022-11-13T14:18:26;29.40;;;21.60;;
13230;SDS011;6681;53.254;10.398;2022-11-13T14:20:53;29.07;;;21.30;;
13230;SDS011;6681;53.254;10.398;2022-11-13T14:23:40;26.87;;;19.47;;
13230;SDS011;6681;53.254;10.398;2022-11-13T14:26:08;31.77;;;22.83;;
13230;SDS011;6681;53.254;10.398;2022-11-13T14:28:55;30.33;;;21.97;;
13230;SDS011;6681;53.254;10.398;2022-11-13T14:31:30;31.93;;;22.03;;
13230;SDS011;6681;53.254;10.398;2022-11-13T14:34:00;34.40;;;24.20;;
13230;SDS011;6681;53.254;10.398;2022-11-13T14:36:40;32.33;;;21.20;;
13230;SDS011;6681;53.254;10.398;2022-11-13T14:39:10;29.47;;;20.50;;
13230;SDS011;6681;53.254;10.398;2022-11-13T14:41:45;31.50;;;22.40;;
13230;SDS011;6681;53.254;10.398;2022-11-13T14:44:27;33.47;;;23.13;;
13230;SDS011;6681;53.254;10.398;2022-11-13T14:47:00;35.17;;;20.17;;
13230;SDS011;6681;53.254;10.398;2022-11-13T14:49:28;28.97;;;21.50;;
13230;SDS011;6681;53.254;10.398;2022-11-13T14:51:56;32.60;;;21.87;;
13230;SDS011;6681;53.254;10.398;2022-11-13T14:54:27;36.13;;;22.00;;
13230;SDS011;6681;53.254;10.398;2022-11-13T14:57:08;24.80;;;18.63;;
13230;SDS011;6681;53.254;10.398;2022-11-13T14:59:36;27.80;;;20.93;;
13230;SDS011;6681;53.254;10.398;2022-11-13T15:02:02;24.50;;;18.47;;
13230;SDS011;6681;53.254;10.398;2022-11-13T15:04:28;28.80;;;19.53;;
13230;SDS011;6681;53.254;10.398;2022-11-13T15:06:57;22.90;;;16.83;;
13230;SDS011;6681;53.254;10.398;2022-11-13T15:09:24;23.53;;;16.13;;
13230;SDS011;6681;53.254;10.398;2022-11-13T15:11:51;28.23;;;18.07;;
13230;SDS011;6681;53.254;10.398;2022-11-13T15:14:17;31.80;;;19.00;;
13230;SDS011;6681;53.254;10.398;2022-11-13T15:16:45;26.50;;;17.77;;
13230;SDS011;6681;53.254;10.398;2022-11-13T15:19:14;22.40;;;17.93;;
13230;SDS011;6681;53.254;10.398;2022-11-13T15:21:43;23.13;;;15.90;;
13230;SDS011;6681;53.254;10.398;2022-11-13T15:24:11;20.00;;;15.67;;
13230;SDS011;6681;53.254;10.398;2022-11-13T15:26:37;19.80;;;13.37;;
13230;SDS011;6681;53.254;10.398;2022-11-13T15:29:04;23.67;;;15.70;;
13230;SDS011;6681;53.254;10.398;2022-11-13T15:31:31;20.40;;;16.13;;
13230;SDS011;6681;53.254;10.398;2022-11-13T15:33:58;22.43;;;15.20;;
13230;SDS011;6681;53.254;10.398;2022-11-13T15:36:24;18.97;;;12.87;;
13230;SDS011;6681;53.254;10.398;2022-11-13T15:38:50;18.73;;;12.87;;
13230;SDS011;6681;53.254;10.398;2022-11-13T15:41:16;21.73;;;14.90;;
13230;SDS011;6681;53.254;10.398;2022-11-13T15:43:48;21.97;;;15.17;;
13230;SDS011;6681;53.254;10.398;2022-11-13T15:46:16;23.37;;;15.37;;
13230;SDS011;6681;53.254;10.398;2022-11-13T15:48:43;21.20;;;15.27;;
13230;SDS011;6681;53.254;10.398;2022-11-13T15:51:23;19.63;;;13.50;;
13230;SDS011;6681;53.254;10.398;2022-11-13T15:53:50;19.83;;;13.03;;
13230;SDS011;6681;53.254;10.398;2022-11-13T15:56:19;22.73;;;14.40;;
13230;SDS011;6681;53.254;10.398;2022-11-13T15:58:45;20.37;;;14.17;;